Time;durP1;ratioP1;P1;durP2;ratioP2;P2;SDS_P1;SDS_P2;PMS_P1;PMS_P2;Temp;Humidity;BMP_temperature;BMP_pressure;BME280_temperature;BME280_humidity;BME280_pressure;Samples;Min_cycle;Max_cycle;Signal;HPM_P1;HPM_P2
2023/01/25 00:01:41;;;;;;;;;55.50;41.75;;;;;4.24;69.21;102860.06;5031748;28;45287;-64
2023/01/25 00:04:06;;;;;;;;;44.50;41.50;;;;;4.04;69.53;102838.88;5033950;28;45391;-62
2023/01/25 00:06:32;;;;;;;;;54.25;41.75;;;;;4.18;69.42;102856.00;5037076;28;46040;-61
2023/01/25 00:08:57;;;;;;;;;60.25;44.00;;;;;4.27;69.38;102860.72;5035971;28;45471;-62
2023/01/25 00:11:23;;;;;;;;;51.50;39.50;;;;;4.25;69.41;102850.94;5037147;28;45408;-63
2023/01/25 00:13:48;;;;;;;;;37.50;32.75;;;;;4.22;69.66;102845.75;5037229;28;45421;-64
2023/01/25 00:16:14;;;;;;;;;59.25;40.00;;;;;4.24;69.66;102846.50;5069165;28;46081;-63
2023/01/25 00:18:39;;;;;;;;;56.25;38.25;;;;;4.20;69.68;102849.47;5052190;28;45532;-64
2023/01/25 00:21:22;;;;;;;;;56.25;42.00;;;;;3.84;69.18;102786.06;5035596;28;45320;-64
2023/01/25 00:23:47;;;;;;;;;55.00;42.50;;;;;4.25;69.05;102845.50;5052535;28;45323;-63
2023/01/25 00:26:13;;;;;;;;;53.50;40.25;;;;;4.09;68.80;102808.63;5068011;28;46365;-63
2023/01/25 00:28:39;;;;;;;;;50.75;38.75;;;;;3.81;69.82;102778.16;5036533;28;45290;-64
2023/01/25 00:31:05;;;;;;;;;49.25;43.00;;;;;3.98;69.15;102814.91;5036907;28;45358;-64
2023/01/25 00:33:36;;;;;;;;;47.00;37.20;;;;;4.19;70.00;102849.56;5035745;28;45427;-61
2023/01/25 00:36:20;;;;;;;;;61.20;44.00;;;;;4.10;69.03;102821.25;5025616;28;45382;-63
2023/01/25 00:38:45;;;;;;;;;46.60;40.20;;;;;4.18;69.91;102836.97;5068942;28;45356;-64
2023/01/25 00:41:11;;;;;;;;;52.00;42.75;;;;;4.26;69.51;102836.38;5051117;28;45469;-64
2023/01/25 00:43:37;;;;;;;;;47.25;41.00;;;;;4.28;69.18;102835.25;5035496;28;45378;-60
2023/01/25 00:46:02;;;;;;;;;46.75;39.50;;;;;4.15;68.93;102810.00;5036567;28;46119;-64
2023/01/25 00:48:28;;;;;;;;;45.00;37.75;;;;;3.97;69.04;102783.28;5036026;28;45370;-65
2023/01/25 00:50:53;;;;;;;;;45.50;39.50;;;;;4.27;69.03;102838.97;5035180;28;45449;-65
2023/01/25 00:53:19;;;;;;;;;49.75;39.00;;;;;4.28;69.08;102835.25;5036485;28;45413;-64
2023/01/25 00:55:54;;;;;;;;;51.50;39.50;;;;;4.19;69.47;102833.25;5034503;28;47192;-64
2023/01/25 00:58:19;;;;;;;;;59.60;44.60;;;;;4.19;69.44;102830.53;5035909;28;45328;-63
2023/01/25 01:00:45;;;;;;;;;56.50;40.00;;;;;4.27;69.83;102838.13;5036015;28;45491;-65
2023/01/25 01:03:10;;;;;;;;;46.25;39.25;;;;;4.26;69.17;102817.34;5035104;28;45261;-65
2023/01/25 01:05:36;;;;;;;;;51.75;44.25;;;;;4.29;69.47;102830.69;5035727;28;46226;-65
2023/01/25 01:08:02;;;;;;;;;44.80;40.00;;;;;4.06;69.68;102796.16;5035742;28;45380;-64
2023/01/25 01:10:27;;;;;;;;;50.50;38.50;;;;;4.11;69.96;102827.56;5034635;28;45411;-64
2023/01/25 01:12:53;;;;;;;;;47.75;30.50;;;;;4.10;69.74;102825.81;5036091;28;45370;-64
2023/01/25 01:15:18;;;;;;;;;51.50;43.00;;;;;4.12;69.32;102811.13;5034370;28;47084;-64
2023/01/25 01:17:44;;;;;;;;;35.75;33.50;;;;;4.15;69.35;102819.03;5033838;28;45781;-61
2023/01/25 01:20:10;;;;;;;;;40.00;34.75;;;;;4.16;69.98;102820.75;5035625;28;45366;-64
2023/01/25 01:22:35;;;;;;;;;52.25;37.50;;;;;4.26;69.06;102822.78;5034650;28;45658;-61
2023/01/25 01:25:01;;;;;;;;;53.75;42.50;;;;;4.23;69.71;102821.19;5035268;28;47275;-64
2023/01/25 01:27:26;;;;;;;;;43.75;37.25;;;;;4.21;70.26;102820.41;5035553;28;45425;-64
2023/01/25 01:29:52;;;;;;;;;44.75;36.00;;;;;4.20;69.74;102811.41;5034595;28;45338;-65
2023/01/25 01:32:17;;;;;;;;;54.75;41.75;;;;;4.28;69.17;102823.53;5034636;28;45378;-65
2023/01/25 01:34:43;;;;;;;;;51.00;42.25;;;;;4.17;69.80;102810.78;5033802;28;46917;-64
2023/01/25 01:37:09;;;;;;;;;45.75;34.50;;;;;3.96;69.25;102780.66;5034176;28;45319;-65
2023/01/25 01:39:34;;;;;;;;;42.75;41.00;;;;;4.25;69.83;102818.31;5035058;28;45415;-65
2023/01/25 01:42:00;;;;;;;;;49.25;41.25;;;;;4.11;69.72;102800.38;5017728;28;45540;-64
2023/01/25 01:44:45;;;;;;;;;43.00;34.00;;;;;4.29;69.19;102825.25;5033924;28;46036;-63
2023/01/25 01:47:33;;;;;;;;;48.60;40.80;;;;;4.24;69.48;102824.75;5035540;28;45328;-64
2023/01/25 01:50:03;;;;;;;;;52.00;39.60;;;;;4.03;69.57;102796.41;5037019;28;45387;-64
2023/01/25 01:52:34;;;;;;;;;49.00;40.75;;;;;4.16;69.12;102823.47;5018368;28;45391;-64
2023/01/25 01:55:14;;;;;;;;;50.80;40.60;;;;;4.23;69.68;102828.44;5035176;28;46691;-64
2023/01/25 01:57:46;;;;;;;;;52.60;41.60;;;;;4.29;69.38;102834.28;5051119;28;45804;-65
2023/01/25 02:00:15;;;;;;;;;60.00;42.60;;;;;4.27;69.48;102821.81;5051287;28;45475;-63
2023/01/25 02:02:41;;;;;;;;;53.75;43.75;;;;;4.29;68.91;102830.69;5002656;28;45589;-64
2023/01/25 02:05:11;;;;;;;;;58.00;39.50;;;;;4.03;68.96;102787.38;5033160;28;45577;-65
2023/01/25 02:07:37;;;;;;;;;55.60;41.40;;;;;4.23;69.21;102837.47;5017359;28;45471;-64
2023/01/25 02:10:04;;;;;;;;;55.60;43.40;;;;;4.18;69.18;102836.97;5035378;28;45395;-63
2023/01/25 02:12:29;;;;;;;;;54.25;42.50;;;;;4.20;69.90;102843.13;5034384;28;45473;-64
2023/01/25 02:14:55;;;;;;;;;51.50;41.25;;;;;4.26;69.35;102842.66;5017074;28;47241;-65
2023/01/25 02:17:28;;;;;;;;;55.75;40.00;;;;;4.31;69.71;102840.47;5050585;28;45465;-64
2023/01/25 02:20:02;;;;;;;;;48.20;40.40;;;;;4.28;69.42;102840.69;5034167;28;45388;-65
2023/01/25 02:22:32;;;;;;;;;52.00;43.75;;;;;4.22;69.58;102846.63;5050979;28;45521;-64
2023/01/25 02:25:04;;;;;;;;;48.20;41.00;;;;;4.19;69.98;102836.84;5033575;28;46359;-65
2023/01/25 02:27:31;;;;;;;;;47.60;41.20;;;;;4.29;69.17;102838.84;5050458;28;45409;-64
2023/01/25 02:29:56;;;;;;;;;47.60;38.40;;;;;4.23;69.36;102821.19;5050252;28;45329;-64
2023/01/25 02:32:22;;;;;;;;;59.50;38.75;;;;;4.25;69.99;102851.81;5033413;28;45684;-64
2023/01/25 02:34:47;;;;;;;;;53.25;41.00;;;;;4.04;69.95;102808.13;5034580;28;45849;-63
2023/01/25 02:37:13;;;;;;;;;53.50;43.75;;;;;4.10;69.89;102826.66;5034955;28;45626;-63
2023/01/25 02:39:40;;;;;;;;;55.50;39.50;;;;;4.10;70.33;102858.44;5016421;28;45610;-63
2023/01/25 02:42:05;;;;;;;;;56.00;45.50;;;;;3.78;70.31;102797.38;5050146;28;45351;-63
2023/01/25 02:44:31;;;;;;;;;44.50;40.25;;;;;4.13;71.14;102847.31;5032926;28;47983;-63
2023/01/25 02:46:56;;;;;;;;;50.50;41.00;;;;;4.18;70.26;102845.13;5034379;28;45970;-64
2023/01/25 02:49:22;;;;;;;;;54.50;41.75;;;;;4.25;70.14;102850.94;5034593;28;45428;-63
2023/01/25 02:51:54;;;;;;;;;56.75;45.75;;;;;3.97;69.63;102802.31;5037086;28;45357;-62
2023/01/25 02:54:20;;;;;;;;;52.40;38.40;;;;;4.09;69.99;102811.34;5020454;28;45718;-63
2023/01/25 02:56:46;;;;;;;;;42.50;36.25;;;;;4.32;69.60;102841.34;5037841;28;45375;-64
2023/01/25 02:59:12;;;;;;;;;56.25;47.00;;;;;4.32;69.98;102831.31;5020183;28;45415;-64
2023/01/25 03:01:38;;;;;;;;;57.40;42.40;;;;;4.30;69.59;102829.69;5036758;28;45559;-65
2023/01/25 03:04:04;;;;;;;;;48.50;40.50;;;;;4.30;69.51;102829.69;5019784;28;47119;-63
2023/01/25 03:06:31;;;;;;;;;44.80;42.80;;;;;4.14;69.33;102801.00;5014465;28;45432;-64
2023/01/25 03:08:56;;;;;;;;;55.80;41.80;;;;;4.32;69.59;102825.03;5036571;28;45273;-65
2023/01/25 03:11:22;;;;;;;;;51.25;42.75;;;;;4.26;69.84;102831.78;5020076;28;45644;-63
2023/01/25 03:13:47;;;;;;;;;50.75;42.00;;;;;4.18;69.78;102829.66;5053003;28;48380;-65
2023/01/25 03:16:13;;;;;;;;;56.75;42.75;;;;;4.09;70.26;102822.22;5037953;28;45340;-65
2023/01/25 03:18:39;;;;;;;;;49.50;42.00;;;;;4.16;70.05;102830.78;5036274;28;45336;-62
2023/01/25 03:21:12;;;;;;;;;58.00;43.50;;;;;4.08;70.42;102823.22;5070674;28;45396;-64
2023/01/25 03:23:38;;;;;;;;;55.00;41.20;;;;;4.24;70.87;102832.91;5019560;28;47205;-64
2023/01/25 03:26:09;;;;;;;;;60.25;44.75;;;;;4.23;70.12;102828.44;5037726;28;45837;-64
2023/01/25 03:28:35;;;;;;;;;62.80;44.60;;;;;4.22;69.80;102829.44;5069799;28;45413;-65
2023/01/25 03:31:00;;;;;;;;;65.25;44.25;;;;;4.15;70.64;102835.34;5037787;28;45393;-64
2023/01/25 03:33:26;;;;;;;;;55.00;39.75;;;;;4.06;71.20;102828.75;5053117;28;46469;-64
2023/01/25 03:35:52;;;;;;;;;53.25;43.75;;;;;4.08;71.26;102834.09;5019249;28;45339;-63
2023/01/25 03:38:21;;;;;;;;;54.60;45.20;;;;;4.07;71.61;102832.34;5037597;28;45345;-64
2023/01/25 03:40:47;;;;;;;;;48.40;33.40;;;;;4.11;71.83;102835.72;5019758;28;45479;-65
2023/01/25 03:43:12;;;;;;;;;64.50;47.50;;;;;4.07;72.01;102826.91;5019512;28;46916;-64
2023/01/25 03:45:38;;;;;;;;;52.75;43.00;;;;;4.12;71.23;102829.28;5036889;28;45474;-65
2023/01/25 03:48:04;;;;;;;;;43.25;38.00;;;;;4.04;71.87;102813.56;5052942;28;45372;-64
2023/01/25 03:50:29;;;;;;;;;47.25;33.25;;;;;4.19;71.11;102827.81;5036386;28;45406;-64
2023/01/25 03:53:01;;;;;;;;;51.00;40.50;;;;;3.82;70.99;102758.16;5037113;28;45817;-63
2023/01/25 03:55:27;;;;;;;;;39.20;31.40;;;;;4.09;71.22;102808.63;5035939;28;45340;-64
2023/01/25 03:57:52;;;;;;;;;49.60;39.80;;;;;4.19;71.57;102827.81;5036252;28;45410;-63
2023/01/25 04:00:18;;;;;;;;;54.25;39.75;;;;;4.15;71.35;102818.16;5036217;28;45431;-63
2023/01/25 04:02:45;;;;;;;;;44.60;38.00;;;;;4.14;71.97;102819.16;5036938;28;45748;-63
2023/01/25 04:05:11;;;;;;;;;51.00;36.60;;;;;4.20;71.01;102815.97;5037224;28;45369;-64
2023/01/25 04:07:36;;;;;;;;;53.00;40.75;;;;;4.24;71.59;102816.59;5036183;28;45221;-64
2023/01/25 04:10:03;;;;;;;;;57.25;41.25;;;;;4.25;71.72;102821.03;5019447;28;45805;-64
2023/01/25 04:12:28;;;;;;;;;46.40;37.60;;;;;4.19;71.47;102815.09;5037311;28;45461;-64
2023/01/25 04:14:54;;;;;;;;;52.00;46.00;;;;;4.25;71.85;102812.88;5018885;28;45326;-64
2023/01/25 04:17:19;;;;;;;;;64.75;46.25;;;;;4.29;71.22;102814.38;5036068;28;45324;-64
2023/01/25 04:19:45;;;;;;;;;47.75;37.25;;;;;4.26;71.64;102809.19;5037250;28;45358;-64
2023/01/25 04:22:11;;;;;;;;;45.75;36.50;;;;;4.25;71.63;102816.47;5035511;28;45370;-62
2023/01/25 04:24:37;;;;;;;;;50.60;40.80;;;;;4.20;71.82;102818.69;5036989;28;45459;-64
2023/01/25 04:27:03;;;;;;;;;50.25;43.75;;;;;4.14;71.97;102820.03;5036585;28;45428;-64
2023/01/25 04:29:28;;;;;;;;;62.25;43.00;;;;;4.08;71.67;102798.75;5035826;28;45358;-64
2023/01/25 04:31:53;;;;;;;;;57.25;44.00;;;;;4.22;72.33;102819.44;5018856;28;45957;-64
2023/01/25 04:34:19;;;;;;;;;47.50;41.00;;;;;4.15;72.36;102813.59;5035600;28;45453;-64
2023/01/25 04:36:45;;;;;;;;;53.75;38.00;;;;;4.22;71.78;102819.44;5035807;28;45314;-63
2023/01/25 04:39:10;;;;;;;;;46.50;37.00;;;;;4.02;71.40;102788.34;5035192;28;45449;-64
2023/01/25 04:41:36;;;;;;;;;45.50;41.25;;;;;4.17;72.44;102817.06;5036683;28;45344;-64
2023/01/25 04:44:01;;;;;;;;;50.75;41.75;;;;;4.17;72.04;102817.06;5036562;28;45408;-64
2023/01/25 04:46:26;;;;;;;;;47.00;41.00;;;;;4.11;72.01;102813.97;5036383;28;45363;-64
2023/01/25 04:48:52;;;;;;;;;42.50;34.75;;;;;4.06;71.97;102817.03;5036921;28;45589;-62
2023/01/25 04:51:18;;;;;;;;;44.25;39.25;;;;;4.10;72.16;102813.09;5036240;28;45960;-63
2023/01/25 04:53:43;;;;;;;;;42.00;33.75;;;;;4.12;71.44;102811.13;5036394;28;45313;-65
2023/01/25 04:56:09;;;;;;;;;42.00;35.50;;;;;4.10;71.85;102809.50;5036405;28;45379;-62
2023/01/25 04:58:34;;;;;;;;;42.50;32.25;;;;;4.02;71.63;102800.09;5052067;28;45643;-63
2023/01/25 05:01:02;;;;;;;;;33.00;29.75;;;;;4.02;71.99;102815.53;5034782;28;47552;-63
2023/01/25 05:03:27;;;;;;;;;42.60;39.40;;;;;3.87;71.68;102794.00;5018169;28;45346;-63
2023/01/25 05:05:53;;;;;;;;;42.00;33.75;;;;;3.87;71.96;102790.38;5051717;28;45537;-64
2023/01/25 05:08:18;;;;;;;;;49.75;42.00;;;;;3.88;72.89;102800.28;5035169;28;45331;-64
2023/01/25 05:10:44;;;;;;;;;46.75;38.25;;;;;3.97;72.61;102793.28;5036100;28;45557;-63
2023/01/25 05:13:10;;;;;;;;;47.50;39.00;;;;;3.76;72.13;102753.19;5034261;28;45384;-63
2023/01/25 05:15:35;;;;;;;;;47.25;42.75;;;;;4.01;72.37;102789.34;5051370;28;45421;-64
2023/01/25 05:18:01;;;;;;;;;35.75;32.75;;;;;4.02;71.92;102796.50;5035276;28;45569;-63
2023/01/25 05:20:27;;;;;;;;;57.60;38.60;;;;;4.04;72.57;102806.28;5035685;28;46816;-64
2023/01/25 05:22:52;;;;;;;;;39.00;36.25;;;;;4.04;71.51;102802.69;5036285;28;45414;-64
2023/01/25 05:28:05;;;;;;;;;33.00;31.00;;;;;3.81;72.45;102791.72;5030023;28;45346;-62
2023/01/25 05:30:31;;;;;;;;;46.40;39.40;;;;;3.57;72.66;102751.84;5027661;28;46470;-64
2023/01/25 05:32:57;;;;;;;;;57.25;38.50;;;;;3.88;73.11;102802.97;5001346;28;45456;-63
2023/01/25 05:35:22;;;;;;;;;40.50;28.50;;;;;3.84;72.80;102794.19;5017802;28;45387;-63
2023/01/25 05:37:48;;;;;;;;;24.75;21.75;;;;;3.85;72.10;102795.94;5036161;28;45812;-64
2023/01/25 05:40:14;;;;;;;;;30.75;29.25;;;;;3.89;72.11;102792.00;5035585;28;45652;-64
2023/01/25 05:42:39;;;;;;;;;36.40;25.20;;;;;3.88;72.17;102787.56;5017737;28;46065;-64
2023/01/25 05:45:06;;;;;;;;;27.50;22.25;;;;;3.63;72.23;102754.13;5033972;28;45464;-63
2023/01/25 05:47:31;;;;;;;;;26.80;25.40;;;;;3.92;71.69;102794.50;5017682;28;45808;-63
2023/01/25 05:49:57;;;;;;;;;33.00;27.50;;;;;3.77;71.58;102768.50;5033886;28;48308;-63
2023/01/25 05:52:22;;;;;;;;;38.50;29.00;;;;;3.89;71.57;102792.00;5035197;28;45384;-63
2023/01/25 05:54:48;;;;;;;;;28.25;22.75;;;;;3.82;71.58;102798.00;5035302;28;45305;-63
2023/01/25 05:57:14;;;;;;;;;28.50;19.25;;;;;3.82;71.72;102779.88;5050387;28;45354;-64
2023/01/25 05:59:39;;;;;;;;;34.75;26.25;;;;;3.85;71.55;102782.34;5016842;28;47146;-64
2023/01/25 06:02:05;;;;;;;;;34.00;23.00;;;;;3.91;71.53;102789.19;5035063;28;45366;-64
2023/01/25 06:04:30;;;;;;;;;28.00;20.00;;;;;3.87;71.00;102780.41;5035129;28;45362;-64
2023/01/25 06:06:56;;;;;;;;;18.00;12.75;;;;;3.89;70.53;102786.56;5051171;28;45350;-64
2023/01/25 06:09:22;;;;;;;;;24.50;18.00;;;;;3.92;69.95;102788.19;5050337;28;45894;-64
2023/01/25 06:11:47;;;;;;;;;27.25;19.75;;;;;3.91;70.37;102789.19;5050232;28;45455;-65
2023/01/25 06:14:13;;;;;;;;;19.50;11.50;;;;;3.78;70.01;102778.38;5050820;28;45328;-64
2023/01/25 06:16:39;;;;;;;;;18.75;18.25;;;;;3.57;70.71;102743.72;5033727;28;45438;-64
2023/01/25 06:19:05;;;;;;;;;17.50;14.00;;;;;3.93;70.07;102789.94;5050075;28;45425;-64
2023/01/25 06:21:31;;;;;;;;;21.80;17.60;;;;;3.12;69.71;102657.50;5034657;28;45272;-64
2023/01/25 06:23:56;;;;;;;;;16.75;13.75;;;;;3.94;70.27;102786.22;5034940;28;45484;-65
2023/01/25 06:26:22;;;;;;;;;17.00;16.25;;;;;3.91;69.53;102792.75;5035013;28;45307;-64
2023/01/25 06:28:47;;;;;;;;;15.50;12.25;;;;;3.89;69.56;102793.88;5049917;28;45397;-63
2023/01/25 06:31:15;;;;;;;;;19.50;15.50;;;;;3.79;69.89;102788.28;5016474;28;45538;-64
2023/01/25 06:33:41;;;;;;;;;20.80;16.00;;;;;3.83;70.32;102788.91;5015691;28;45438;-64
2023/01/25 06:36:10;;;;;;;;;23.60;21.40;;;;;3.76;69.82;102786.66;5032174;28;45398;-64
2023/01/25 06:38:35;;;;;;;;;20.80;15.00;;;;;3.61;69.93;102783.25;5034528;28;45668;-63
2023/01/25 06:41:02;;;;;;;;;19.00;18.50;;;;;3.54;69.76;102790.13;5032818;28;45514;-64
2023/01/25 06:43:27;;;;;;;;;18.80;14.00;;;;;3.45;69.73;102759.09;5067464;28;45386;-65
2023/01/25 06:45:59;;;;;;;;;23.75;21.00;;;;;3.39;70.00;102776.72;5050002;28;45624;-65
2023/01/25 06:48:25;;;;;;;;;17.80;16.80;;;;;3.43;70.51;102780.06;5049887;28;46550;-64
2023/01/25 06:50:55;;;;;;;;;25.40;18.20;;;;;3.44;70.58;102779.09;5033267;28;45489;-65
2023/01/25 06:53:21;;;;;;;;;26.20;18.20;;;;;3.46;70.58;102787.13;5033711;28;45339;-63
2023/01/25 06:55:46;;;;;;;;;25.00;18.75;;;;;3.31;70.97;102765.53;5033747;28;45597;-63
2023/01/25 06:58:12;;;;;;;;;24.75;18.25;;;;;3.43;70.62;102777.34;5016520;28;45610;-65
2023/01/25 07:00:37;;;;;;;;;25.00;18.25;;;;;3.35;71.04;102777.03;5035043;28;45413;-64
2023/01/25 07:03:03;;;;;;;;;22.25;16.50;;;;;3.42;70.88;102772.03;5033168;28;45335;-64
2023/01/25 07:05:28;;;;;;;;;32.50;23.50;;;;;3.47;70.60;102776.13;5035081;28;45598;-64
2023/01/25 07:07:54;;;;;;;;;29.25;17.25;;;;;3.14;70.27;102722.53;5034527;28;45456;-62
2023/01/25 07:10:20;;;;;;;;;21.50;18.75;;;;;3.41;70.37;102778.44;5034608;28;45380;-64
2023/01/25 07:12:45;;;;;;;;;18.75;18.50;;;;;3.37;70.67;102775.09;5016966;28;45453;-64
2023/01/25 07:15:11;;;;;;;;;18.75;14.75;;;;;3.43;70.23;102779.19;5033199;28;45586;-65
2023/01/25 07:17:36;;;;;;;;;18.50;15.25;;;;;3.45;70.35;102772.66;5016768;28;46935;-67
2023/01/25 07:20:02;;;;;;;;;16.75;13.25;;;;;3.49;69.89;102781.44;5016384;28;45461;-63
2023/01/25 07:22:27;;;;;;;;;13.00;10.00;;;;;3.34;69.69;102756.31;5034704;28;45399;-65
2023/01/25 07:24:56;;;;;;;;;14.50;11.50;;;;;3.30;70.82;102763.81;5034794;28;45292;-63
2023/01/25 07:27:22;;;;;;;;;18.80;17.80;;;;;3.39;70.46;102775.84;5032580;28;47666;-65
2023/01/25 07:29:47;;;;;;;;;27.00;18.00;;;;;3.46;70.11;102784.41;5000221;28;45474;-66
2023/01/25 07:32:13;;;;;;;;;21.50;16.75;;;;;3.49;70.23;102776.00;5016126;28;45329;-67
2023/01/25 07:34:39;;;;;;;;;13.50;12.25;;;;;3.49;70.28;102781.44;5016895;28;45324;-64
2023/01/25 07:37:04;;;;;;;;;23.25;23.00;;;;;3.43;70.10;102776.47;5036352;28;45437;-64
2023/01/25 07:39:30;;;;;;;;;24.00;17.75;;;;;3.46;69.60;102778.97;5036422;28;45971;-65
2023/01/25 07:41:56;;;;;;;;;25.50;18.75;;;;;3.47;70.00;102778.00;5037777;28;45394;-63
2023/01/25 07:44:22;;;;;;;;;13.75;12.25;;;;;3.35;70.66;102775.19;5037887;28;45436;-63
2023/01/25 07:46:47;;;;;;;;;30.25;18.00;;;;;3.34;70.94;102780.75;5036290;28;46317;-65
2023/01/25 07:49:13;;;;;;;;;23.25;18.00;;;;;3.28;70.48;102778.47;5036285;28;45366;-62
2023/01/25 07:51:39;;;;;;;;;21.50;17.50;;;;;3.27;70.89;102776.75;5037140;28;45354;-61
2023/01/25 07:54:04;;;;;;;;;25.60;18.80;;;;;3.32;70.78;102782.72;5042790;27;45579;-64
2023/01/25 07:56:36;;;;;;;;;17.00;13.00;;;;;3.37;70.35;102781.38;5046422;28;47877;-64
2023/01/25 07:59:02;;;;;;;;;25.20;18.60;;;;;3.29;70.72;102772.94;5019634;28;45481;-63
2023/01/25 08:01:28;;;;;;;;;16.00;13.00;;;;;3.32;70.73;102772.72;5035649;28;45316;-66
2023/01/25 08:03:55;;;;;;;;;26.25;21.00;;;;;3.29;70.82;102761.19;5036188;28;45625;-64
2023/01/25 08:06:26;;;;;;;;;22.20;15.80;;;;;3.41;70.43;102775.72;5035589;28;45430;-63
2023/01/25 08:08:52;;;;;;;;;26.00;21.40;;;;;3.10;70.47;102730.88;5019343;28;45422;-62
2023/01/25 08:11:19;;;;;;;;;23.25;15.75;;;;;2.90;70.46;102690.78;5037482;28;45363;-64
2023/01/25 08:13:45;;;;;;;;;27.80;22.00;;;;;3.22;70.71;102772.53;5037680;28;45326;-64
2023/01/25 08:16:14;;;;;;;;;19.75;17.00;;;;;3.06;70.74;102750.22;5035730;28;45786;-63
2023/01/25 08:18:40;;;;;;;;;25.60;21.40;;;;;3.23;70.51;102778.81;5035625;28;45694;-65
2023/01/25 08:21:06;;;;;;;;;25.75;20.00;;;;;3.20;70.80;102776.34;5037422;28;46084;-64
2023/01/25 08:23:31;;;;;;;;;20.75;18.50;;;;;3.24;70.86;102770.56;5036950;28;45440;-65
2023/01/25 08:26:05;;;;;;;;;27.50;23.25;;;;;3.15;70.96;102776.66;5069396;28;46799;-65
2023/01/25 08:28:30;;;;;;;;;24.40;24.00;;;;;3.16;71.02;102772.13;5052390;28;45489;-63
2023/01/25 08:31:15;;;;;;;;;40.25;25.50;;;;;3.20;70.56;102779.06;5052481;28;45351;-59
2023/01/25 08:33:41;;;;;;;;;27.60;21.80;;;;;3.23;70.87;102778.81;5035445;28;45643;-59
2023/01/25 08:36:09;;;;;;;;;25.60;22.40;;;;;3.24;71.13;102770.56;5036882;28;45484;-58
2023/01/25 08:38:35;;;;;;;;;25.20;24.00;;;;;3.32;70.73;102775.44;5036427;28;45417;-60
2023/01/25 08:41:13;;;;;;;;;28.00;20.75;;;;;3.35;70.73;102767.06;5036598;28;45210;-60
2023/01/25 08:43:38;;;;;;;;;24.80;20.60;;;;;3.39;70.13;102763.16;5036817;28;45490;-59
2023/01/25 08:46:04;;;;;;;;;21.00;18.75;;;;;3.33;70.50;102763.59;5035925;28;45863;-60
2023/01/25 08:48:29;;;;;;;;;24.75;20.00;;;;;3.07;70.59;102739.25;5034045;28;45496;-61
2023/01/25 08:50:55;;;;;;;;;23.25;17.75;;;;;3.01;70.70;102723.44;5036030;28;45436;-61
2023/01/25 08:53:20;;;;;;;;;23.25;18.50;;;;;3.28;70.61;102754.03;5036436;28;45573;-60
2023/01/25 08:55:46;;;;;;;;;27.50;26.25;;;;;3.31;70.18;102751.13;5036126;28;46456;-60
2023/01/25 08:58:15;;;;;;;;;22.25;22.00;;;;;3.37;69.93;102759.66;5034574;28;45399;-62
2023/01/25 09:00:41;;;;;;;;;20.20;17.00;;;;;3.26;70.57;102740.63;5036287;28;45239;-60
2023/01/25 09:03:07;;;;;;;;;28.40;22.80;;;;;3.31;70.55;102760.13;5034905;28;45665;-60
2023/01/25 09:05:33;;;;;;;;;16.25;13.75;;;;;3.07;70.63;102714.84;5035941;28;45448;-60
2023/01/25 09:08:00;;;;;;;;;32.40;19.80;;;;;3.31;70.25;102742.97;5035853;28;45403;-60
2023/01/25 09:10:25;;;;;;;;;26.40;26.00;;;;;3.33;70.35;102758.16;5036175;28;45460;-59
2023/01/25 09:12:51;;;;;;;;;24.75;22.00;;;;;3.30;70.21;102761.09;5034562;28;45612;-59
2023/01/25 09:15:16;;;;;;;;;19.00;13.00;;;;;3.18;71.49;102759.28;5035754;28;45434;-58
2023/01/25 09:17:42;;;;;;;;;34.25;27.00;;;;;3.23;70.79;102746.25;5035821;28;45356;-61
2023/01/25 09:20:08;;;;;;;;;37.00;29.50;;;;;3.22;70.64;102752.66;5035934;28;45446;-61
2023/01/25 09:22:34;;;;;;;;;28.20;24.80;;;;;3.16;71.20;102753.13;5017740;28;45404;-61
2023/01/25 09:24:59;;;;;;;;;34.00;28.00;;;;;3.19;71.04;102752.88;5035605;28;47342;-54
2023/01/25 09:27:25;;;;;;;;;28.75;26.00;;;;;2.46;71.38;102634.28;5032829;28;45446;-62
2023/01/25 09:29:50;;;;;;;;;34.00;27.25;;;;;3.20;71.68;102750.06;5030932;28;45372;-59
2023/01/25 09:32:16;;;;;;;;;31.75;28.75;;;;;3.22;70.64;102755.38;5033180;28;45671;-59
2023/01/25 09:34:41;;;;;;;;;34.50;24.75;;;;;3.25;70.85;102758.72;5003880;28;45489;-58
2023/01/25 09:37:07;;;;;;;;;32.50;27.75;;;;;3.21;70.67;102750.94;5034177;28;45259;-63
2023/01/25 09:39:32;;;;;;;;;27.00;23.50;;;;;3.14;70.86;102741.53;5034464;28;45406;-63
2023/01/25 09:42:31;;;;;;;;;33.75;25.50;;;;;3.15;71.00;102743.25;5033878;28;45440;-60
2023/01/25 09:45:06;;;;;;;;;35.60;31.00;;;;;3.15;70.81;102738.66;5029829;28;45550;-59
2023/01/25 09:47:54;;;;;;;;;25.60;22.40;;;;;3.16;70.76;102734.13;5032398;28;45362;-60
2023/01/25 09:50:33;;;;;;;;;29.20;25.00;;;;;3.14;70.63;102749.66;5039742;28;45435;-61
2023/01/25 09:53:37;;;;;;;;;37.40;30.20;;;;;3.05;70.17;102737.63;5032848;28;45403;-59
2023/01/25 09:56:33;;;;;;;;;27.00;19.60;;;;;3.00;70.74;102735.25;5033578;28;46390;-60
2023/01/25 09:59:04;;;;;;;;;32.20;25.80;;;;;3.10;70.78;102749.03;5023661;28;45613;-63
2023/01/25 10:02:11;;;;;;;;;28.60;26.80;;;;;3.11;70.58;102751.59;5064231;28;45377;-60
2023/01/25 10:04:39;;;;;;;;;36.00;23.60;;;;;3.12;70.65;102747.06;5033206;28;45514;-61
2023/01/25 10:07:29;;;;;;;;;39.20;33.20;;;;;2.87;70.50;102713.56;5032451;28;47001;-60
2023/01/25 10:10:05;;;;;;;;;32.20;25.20;;;;;3.06;70.78;102747.50;5006438;28;45575;-63
2023/01/25 10:12:35;;;;;;;;;31.00;25.40;;;;;2.82;70.87;102721.19;5044525;28;45363;-63
2023/01/25 10:15:01;;;;;;;;;33.80;28.20;;;;;3.01;71.11;102757.81;5031431;28;45505;-63
2023/01/25 10:17:43;;;;;;;;;26.00;22.50;;;;;2.82;70.41;102729.31;5047893;28;45440;-64
2023/01/25 10:20:34;;;;;;;;;28.00;24.00;;;;;3.02;70.77;102755.00;5031778;28;45798;-61
2023/01/25 10:23:37;;;;;;;;;28.80;25.40;;;;;3.04;70.38;102753.03;5010461;28;45434;-67
2023/01/25 10:26:06;;;;;;;;;29.40;26.00;;;;;2.94;70.56;102741.97;5031764;28;45379;-67
2023/01/25 10:28:49;;;;;;;;;25.80;22.80;;;;;2.98;70.75;102751.66;5014578;28;45877;-66
2023/01/25 10:31:19;;;;;;;;;24.00;23.00;;;;;3.01;70.62;102755.97;5031321;28;45411;-63
2023/01/25 10:33:46;;;;;;;;;36.40;33.80;;;;;2.98;71.30;102753.47;5029644;28;45891;-62
2023/01/25 10:36:27;;;;;;;;;37.40;33.80;;;;;3.06;70.79;102751.09;5002738;28;45613;-63
2023/01/25 10:38:58;;;;;;;;;33.60;26.00;;;;;3.04;70.30;102747.59;5019814;28;45832;-67
2023/01/25 10:41:27;;;;;;;;;30.00;25.40;;;;;3.11;70.66;102745.31;5031613;28;45328;-62
2023/01/25 10:46:37;;;;;;;;;38.40;32.40;;;;;3.00;69.98;102740.69;5030927;28;45398;-66
2023/01/25 10:49:21;;;;;;;;;39.60;31.40;;;;;3.04;70.49;102746.75;5030400;28;46412;-61
2023/01/25 10:51:47;;;;;;;;;32.40;30.60;;;;;2.81;70.83;102720.31;5012169;28;45490;-63
2023/01/25 10:54:14;;;;;;;;;38.25;29.25;;;;;2.90;70.04;102726.06;5013354;28;45586;-66
2023/01/25 10:56:39;;;;;;;;;39.20;31.40;;;;;2.17;70.57;102616.44;5013350;28;45385;-64
2023/01/25 10:59:14;;;;;;;;;42.25;35.50;;;;;2.85;71.08;102724.53;4995530;28;48489;-64
2023/01/25 11:01:40;;;;;;;;;39.80;29.60;;;;;2.90;70.67;102729.66;5017922;28;45390;-66
2023/01/25 11:04:23;;;;;;;;;33.75;28.25;;;;;2.86;70.50;102725.41;5034014;28;45421;-67
2023/01/25 11:06:50;;;;;;;;;37.40;28.20;;;;;2.54;70.76;102667.13;5033668;28;45403;-65
2023/01/25 11:09:21;;;;;;;;;35.80;30.00;;;;;2.94;70.61;102724.84;5024431;28;45690;-64
2023/01/25 11:12:03;;;;;;;;;32.60;30.20;;;;;2.92;70.46;102724.09;5035364;28;45401;-65
2023/01/25 11:14:30;;;;;;;;;36.20;30.00;;;;;2.94;70.57;102714.00;5034341;28;45431;-65
2023/01/25 11:16:57;;;;;;;;;40.75;33.50;;;;;2.92;70.58;102705.97;5035725;28;45362;-66
2023/01/25 11:19:36;;;;;;;;;41.80;29.20;;;;;2.82;70.14;102703.06;5036435;28;45372;-66
2023/01/25 11:22:04;;;;;;;;;35.60;35.60;;;;;2.89;70.25;102711.63;5051981;28;45561;-66
2023/01/25 11:24:31;;;;;;;;;46.80;32.80;;;;;2.93;69.77;102710.41;5035258;28;45435;-65
2023/01/25 11:27:20;;;;;;;;;34.00;31.40;;;;;2.88;69.93;102699.03;5051361;28;45318;-66